Time;durP1;ratioP1;P1;durP2;ratioP2;P2;SDS_P1;SDS_P2;PMS_P1;PMS_P2;Temp;Humidity;BMP_temperature;BMP_pressure;BME280_temperature;BME280_humidity;BME280_pressure;Samples;Min_cycle;Max_cycle;Signal;HPM_P1;HPM_P2
2022/09/19 04:46:54;;;;;;;15.18;2.10;;;11.70;99.90;;;;;;5103176;23;20082;-77
2022/09/19 04:49:20;;;;;;;13.23;1.50;;;11.70;99.90;;;;;;4949400;29;20050;-70
2022/09/19 04:51:49;;;;;;;13.60;1.75;;;11.70;99.90;;;;;;4947809;28;20023;-74
2022/09/19 04:54:14;;;;;;;15.00;2.17;;;11.70;99.90;;;;;;4945741;29;20457;-76
2022/09/19 04:57:09;;;;;;;9.50;2.10;;;11.70;99.90;;;;;;4945534;29;20027;-76
2022/09/19 04:59:35;;;;;;;8.02;1.85;;;11.70;99.90;;;;;;4946338;28;20035;-76
2022/09/19 05:02:02;;;;;;;14.18;1.83;;;11.70;99.90;;;;;;4948060;29;20053;-75
2022/09/19 05:04:29;;;;;;;16.08;2.13;;;11.70;99.90;;;;;;4950073;28;20465;-74
2022/09/19 05:06:56;;;;;;;13.65;1.88;;;11.70;99.90;;;;;;4947210;28;20139;-76
2022/09/19 05:09:22;;;;;;;12.30;1.67;;;11.70;99.90;;;;;;4948034;29;20024;-74
2022/09/19 05:11:53;;;;;;;8.40;1.35;;;11.70;99.90;;;;;;4950524;29;20082;-76
2022/09/19 05:14:21;;;;;;;14.63;2.03;;;11.80;99.90;;;;;;4947328;29;20032;-76
2022/09/19 05:16:49;;;;;;;15.95;1.60;;;11.70;99.90;;;;;;4945189;29;20075;-75
2022/09/19 05:19:21;;;;;;;18.55;2.10;;;11.80;99.90;;;;;;4954250;29;20122;-76
2022/09/19 05:21:48;;;;;;;14.75;2.08;;;11.80;99.90;;;;;;4946593;28;20039;-75
2022/09/19 05:24:15;;;;;;;13.95;2.10;;;11.80;99.90;;;;;;4947597;29;20038;-74
2022/09/19 05:26:43;;;;;;;9.32;1.70;;;11.80;99.90;;;;;;4950048;28;20589;-76
2022/09/19 05:29:13;;;;;;;12.23;1.58;;;11.80;99.90;;;;;;4951387;29;20038;-74
2022/09/19 05:31:44;;;;;;;11.57;1.63;;;11.80;99.90;;;;;;4950142;29;20031;-76
2022/09/19 05:34:11;;;;;;;16.73;1.40;;;11.80;99.90;;;;;;4947428;29;20042;-77
2022/09/19 05:36:38;;;;;;;9.50;1.63;;;11.90;99.90;;;;;;4944645;28;20046;-76
2022/09/19 05:39:06;;;;;;;15.27;1.52;;;11.90;99.90;;;;;;4947822;29;20050;-77
2022/09/19 05:41:32;;;;;;;15.48;1.70;;;11.90;99.90;;;;;;4948316;28;20070;-76
2022/09/19 05:43:58;;;;;;;11.45;1.95;;;11.90;99.90;;;;;;4947719;29;20024;-76
2022/09/19 05:46:24;;;;;;;12.77;1.45;;;12.00;99.90;;;;;;4945379;28;20050;-76
2022/09/19 05:48:52;;;;;;;10.07;1.98;;;12.00;99.90;;;;;;4944398;29;20023;-77
2022/09/19 05:51:18;;;;;;;13.25;1.77;;;12.10;99.90;;;;;;4947940;28;20126;-76
2022/09/19 05:53:54;;;;;;;10.18;1.50;;;12.10;99.90;;;;;;4948607;28;20433;-76
2022/09/19 05:56:21;;;;;;;12.13;1.65;;;12.20;99.90;;;;;;4951018;29;20483;-78
2022/09/19 05:58:47;;;;;;;17.45;2.17;;;12.20;99.90;;;;;;4945737;29;20023;-77
2022/09/19 06:01:13;;;;;;;17.52;1.95;;;12.30;99.90;;;;;;4945598;29;20031;-76
2022/09/19 06:03:40;;;;;;;13.30;2.08;;;12.40;99.90;;;;;;4943765;29;20031;-76
2022/09/19 06:06:11;;;;;;;18.38;1.77;;;12.40;99.90;;;;;;4944367;29;20078;-77
2022/09/19 06:08:38;;;;;;;13.40;1.52;;;12.40;99.90;;;;;;4950930;29;20034;-76
2022/09/19 06:11:10;;;;;;;13.27;1.67;;;12.50;99.90;;;;;;4950744;29;20082;-71
2022/09/19 06:16:22;;;;;;;12.77;1.42;;;12.60;99.90;;;;;;4947669;29;20069;-77
2022/09/19 06:18:49;;;;;;;14.40;1.73;;;12.70;99.90;;;;;;4947251;28;20404;-76
2022/09/19 06:21:17;;;;;;;11.15;2.60;;;12.80;99.90;;;;;;4946216;29;20027;-77
2022/09/19 06:23:43;;;;;;;9.40;1.38;;;12.80;99.90;;;;;;4959461;28;20078;-77
2022/09/19 06:26:09;;;;;;;8.63;1.40;;;12.90;99.90;;;;;;4945903;28;20055;-74
2022/09/19 06:28:35;;;;;;;6.97;1.35;;;13.00;99.90;;;;;;4945896;28;20023;-76
2022/09/19 06:31:03;;;;;;;13.75;1.45;;;13.00;99.90;;;;;;4951052;29;20062;-77
2022/09/19 06:33:29;;;;;;;6.60;1.50;;;13.10;99.90;;;;;;4946240;28;20023;-76
2022/09/19 06:35:59;;;;;;;8.57;1.70;;;13.10;99.90;;;;;;4950405;28;20482;-77
2022/09/19 06:38:25;;;;;;;16.10;1.77;;;13.20;99.90;;;;;;4945761;28;20022;-74
2022/09/19 06:40:51;;;;;;;15.00;1.88;;;13.30;99.90;;;;;;4946227;29;20118;-74
2022/09/19 06:43:21;;;;;;;12.32;1.88;;;13.40;99.90;;;;;;4951784;28;20123;-77
2022/09/19 06:45:47;;;;;;;7.68;1.60;;;13.40;99.90;;;;;;4943834;28;20027;-78
2022/09/19 06:48:13;;;;;;;14.63;1.73;;;13.40;99.90;;;;;;4942317;28;20011;-77
2022/09/19 06:50:41;;;;;;;7.63;1.48;;;13.50;99.90;;;;;;4947254;29;20023;-76
2022/09/19 06:53:06;;;;;;;18.80;1.92;;;13.50;99.90;;;;;;4944711;29;20413;-75
2022/09/19 06:55:35;;;;;;;10.00;1.50;;;13.60;99.90;;;;;;4944320;28;20102;-76
2022/09/19 06:58:05;;;;;;;14.32;1.92;;;13.60;99.90;;;;;;4943005;28;20589;-78
2022/09/19 07:00:38;;;;;;;8.48;1.50;;;13.70;99.90;;;;;;4942015;29;20528;-76
2022/09/19 07:03:10;;;;;;;14.65;1.85;;;13.70;99.90;;;;;;4945021;29;20023;-75
2022/09/19 07:05:39;;;;;;;5.70;1.33;;;13.80;99.90;;;;;;4947061;29;20384;-77
2022/09/19 07:08:08;;;;;;;10.32;1.60;;;13.90;99.90;;;;;;4944685;29;20055;-76
2022/09/19 07:10:35;;;;;;;10.30;1.70;;;14.10;99.90;;;;;;4956344;28;20031;-77
2022/09/19 07:13:04;;;;;;;7.65;1.38;;;14.10;99.90;;;;;;4946156;28;20074;-77
2022/09/19 07:15:32;;;;;;;8.57;1.45;;;14.30;99.90;;;;;;4946355;29;20028;-73
2022/09/19 07:17:58;;;;;;;6.57;1.85;;;14.40;99.90;;;;;;4945003;29;20016;-78
2022/09/19 07:20:25;;;;;;;8.05;1.45;;;14.50;99.90;;;;;;4950829;28;20032;-77
2022/09/19 07:23:03;;;;;;;14.45;1.63;;;14.50;99.90;;;;;;4941466;28;20035;-71
2022/09/19 07:25:32;;;;;;;11.07;1.52;;;14.60;99.90;;;;;;4943333;29;20134;-74
2022/09/19 07:28:00;;;;;;;14.90;1.55;;;14.60;99.90;;;;;;4957379;28;20449;-71
2022/09/19 07:30:26;;;;;;;9.18;1.30;;;14.60;99.90;;;;;;4948250;29;20058;-77
2022/09/19 07:33:02;;;;;;;7.20;1.33;;;14.70;99.90;;;;;;4943513;28;20059;-78
2022/09/19 07:35:30;;;;;;;8.95;1.65;;;14.70;99.90;;;;;;4941720;29;20028;-76
2022/09/19 07:37:56;;;;;;;7.88;1.60;;;14.80;99.90;;;;;;4944301;29;20635;-78
2022/09/19 07:40:23;;;;;;;11.10;1.42;;;14.90;99.90;;;;;;4945726;28;20357;-78
2022/09/19 07:42:50;;;;;;;10.68;1.40;;;15.00;99.90;;;;;;4945312;28;20027;-78
2022/09/19 07:45:17;;;;;;;5.22;1.08;;;15.10;99.90;;;;;;4952312;28;20118;-77
2022/09/19 07:47:49;;;;;;;4.90;1.27;;;15.20;99.90;;;;;;4944912;28;20045;-77
2022/09/19 07:50:18;;;;;;;11.18;1.30;;;15.30;99.90;;;;;;4945070;29;20051;-76
2022/09/19 07:52:48;;;;;;;11.50;1.75;;;15.40;99.90;;;;;;4947914;29;20394;-77
2022/09/19 07:55:14;;;;;;;11.02;1.77;;;15.60;99.90;;;;;;4949914;28;20063;-78
2022/09/19 07:57:52;;;;;;;12.55;1.60;;;15.80;99.90;;;;;;4946711;29;20072;-75
2022/09/19 08:00:18;;;;;;;15.35;1.63;;;15.80;99.90;;;;;;4947439;29;20098;-75
2022/09/19 08:02:51;;;;;;;8.88;1.63;;;15.90;99.90;;;;;;4951188;28;20038;-80
2022/09/19 08:05:21;;;;;;;8.45;1.65;;;16.00;99.90;;;;;;4953118;29;20082;-77
2022/09/19 08:07:47;;;;;;;12.55;1.52;;;16.00;99.90;;;;;;4950944;29;20027;-75
2022/09/19 08:10:15;;;;;;;5.85;1.67;;;15.90;99.90;;;;;;4949939;28;20042;-76
2022/09/19 08:12:45;;;;;;;8.68;1.42;;;15.90;99.90;;;;;;4950657;29;20020;-76
2022/09/19 08:15:17;;;;;;;13.90;2.03;;;16.10;99.90;;;;;;4948093;29;20031;-74
2022/09/19 08:17:59;;;;;;;5.55;1.27;;;16.40;99.90;;;;;;4947213;29;20035;-73
2022/09/19 08:20:27;;;;;;;9.63;1.65;;;16.60;99.90;;;;;;4958493;28;20091;-76
2022/09/19 08:23:02;;;;;;;8.88;1.58;;;16.90;99.90;;;;;;4950368;29;20019;-77
2022/09/19 08:25:33;;;;;;;15.15;1.70;;;17.00;99.90;;;;;;4947105;28;20405;-74
2022/09/19 08:28:00;;;;;;;10.85;1.23;;;17.40;99.90;;;;;;4966665;28;20020;-76
2022/09/19 08:30:29;;;;;;;8.85;1.80;;;17.40;99.90;;;;;;4951674;28;20038;-75
2022/09/19 08:32:56;;;;;;;11.68;1.40;;;17.40;99.90;;;;;;4947562;29;20054;-76
2022/09/19 08:35:23;;;;;;;11.13;1.42;;;17.40;99.90;;;;;;4953316;28;20031;-77
2022/09/19 08:37:56;;;;;;;11.20;2.00;;;17.20;99.90;;;;;;4951620;28;20027;-79
2022/09/19 08:40:31;;;;;;;8.82;1.55;;;17.30;99.90;;;;;;4952101;29;20082;-77
2022/09/19 08:43:12;;;;;;;12.05;1.92;;;17.30;99.90;;;;;;4948736;28;20469;-77
2022/09/19 08:45:40;;;;;;;14.32;1.70;;;17.30;99.90;;;;;;4969099;28;20453;-77
2022/09/19 08:48:18;;;;;;;9.23;1.70;;;17.30;99.90;;;;;;4946596;29;20032;-76
2022/09/19 08:50:57;;;;;;;12.63;1.65;;;17.30;99.90;;;;;;4950023;29;20015;-75
2022/09/19 08:53:32;;;;;;;7.30;1.23;;;17.30;99.90;;;;;;4952105;29;20023;-78
2022/09/19 08:56:01;;;;;;;10.55;1.52;;;17.50;99.90;;;;;;4947627;29;20584;-77
2022/09/19 08:58:29;;;;;;;10.45;1.70;;;17.50;99.90;;;;;;4947147;29;20027;-77
2022/09/19 09:00:58;;;;;;;5.43;1.38;;;17.50;99.90;;;;;;4952721;28;20111;-75
2022/09/19 09:03:41;;;;;;;10.27;1.63;;;17.50;99.90;;;;;;4955008;28;20307;-76
2022/09/19 09:06:32;;;;;;;9.13;1.25;;;17.50;99.90;;;;;;4962645;28;20039;-76
2022/09/19 09:09:42;;;;;;;12.27;1.52;;;17.80;99.90;;;;;;4947332;29;20377;-77
2022/09/19 09:12:10;;;;;;;4.88;1.73;;;18.20;99.90;;;;;;4940265;29;20051;-80
2022/09/19 09:15:02;;;;;;;5.40;1.40;;;18.50;99.90;;;;;;4952700;29;20094;-74
2022/09/19 09:17:36;;;;;;;11.05;1.35;;;18.70;99.90;;;;;;4950542;29;20023;-75
2022/09/19 09:20:16;;;;;;;15.00;1.75;;;18.30;99.90;;;;;;4951602;29;20065;-70
2022/09/19 09:22:48;;;;;;;9.52;1.73;;;18.10;99.90;;;;;;4947468;29;20483;-77
2022/09/19 09:25:23;;;;;;;9.50;1.52;;;18.10;99.90;;;;;;4952434;29;20066;-77
2022/09/19 09:27:55;;;;;;;9.90;1.70;;;18.20;99.90;;;;;;4950131;29;20027;-76
2022/09/19 09:30:21;;;;;;;11.55;1.42;;;18.10;99.90;;;;;;4947355;29;20132;-77
2022/09/19 09:33:05;;;;;;;10.38;1.58;;;18.20;99.90;;;;;;4947075;28;20028;-77
2022/09/19 09:35:39;;;;;;;7.00;1.27;;;18.30;99.90;;;;;;4962770;28;20027;-75
2022/09/19 09:38:29;;;;;;;11.38;1.73;;;18.30;99.90;;;;;;4950794;29;20027;-77
2022/09/19 09:44:12;;;;;;;10.88;2.00;;;18.10;99.90;;;;;;4946012;29;20683;-77
2022/09/19 09:46:49;;;;;;;6.32;1.23;;;18.10;99.90;;;;;;4947901;29;20031;-76
2022/09/19 09:49:22;;;;;;;13.73;1.75;;;18.20;99.90;;;;;;4949641;29;20074;-77
2022/09/19 09:52:29;;;;;;;11.05;1.92;;;18.40;99.90;;;;;;4946398;28;20110;-77
2022/09/19 09:58:47;;;;;;;5.82;1.55;;;19.90;99.90;;;;;;4944409;29;20034;-76
2022/09/19 10:04:30;;;;;;;4.47;1.23;;;21.50;98.60;;;;;;4946806;29;20045;-77
2022/09/19 10:07:20;;;;;;;4.07;1.83;;;21.90;97.10;;;;;;4949383;28;20065;-79
2022/09/19 10:09:53;;;;;;;7.20;1.73;;;21.80;94.40;;;;;;4947969;29;20047;-77
2022/09/19 10:12:29;;;;;;;6.15;2.00;;;21.50;94.00;;;;;;4950745;28;20047;-75
2022/09/19 10:15:00;;;;;;;5.00;1.25;;;21.30;94.10;;;;;;4944683;29;20035;-75
2022/09/19 10:17:32;;;;;;;5.93;1.30;;;21.60;94.30;;;;;;4944243;28;20031;-77
2022/09/19 10:20:03;;;;;;;9.67;1.77;;;21.50;92.40;;;;;;4947921;29;20031;-78
2022/09/19 10:22:29;;;;;;;10.95;1.52;;;21.40;94.50;;;;;;4944330;29;20024;-77
2022/09/19 10:24:59;;;;;;;10.02;1.50;;;21.70;94.00;;;;;;4950295;28;20024;-78
2022/09/19 10:27:31;;;;;;;8.45;1.27;;;21.50;93.00;;;;;;4952749;28;20054;-78
2022/09/19 10:30:14;;;;;;;9.88;1.70;;;21.60;93.30;;;;;;4946172;29;20028;-74
2022/09/19 10:32:40;;;;;;;;;;;21.80;92.70;;;;;;4952494;29;20446;-77
2022/09/19 10:35:25;;;;;;;7.22;1.10;;;21.90;92.40;;;;;;4948869;28;19957;-77
2022/09/19 10:38:14;;;;;;;3.35;1.30;;;22.10;92.40;;;;;;4949535;29;20103;-76
2022/09/19 10:41:01;;;;;;;9.93;1.13;;;22.40;91.40;;;;;;4963362;28;20023;-76
2022/09/19 10:43:31;;;;;;;10.88;1.17;;;22.00;91.00;;;;;;4945472;29;20467;-76
2022/09/19 10:46:05;;;;;;;8.77;1.35;;;21.20;91.50;;;;;;4951887;28;20093;-77
2022/09/19 10:48:33;;;;;;;7.00;1.60;;;20.50;94.40;;;;;;4958646;29;20066;-77
2022/09/19 10:51:06;;;;;;;5.05;1.02;;;19.80;96.00;;;;;;4948657;29;20023;-78
2022/09/19 10:53:33;;;;;;;7.15;1.48;;;19.50;97.30;;;;;;4952131;28;20113;-76
2022/09/19 10:56:12;;;;;;;5.95;1.52;;;19.20;97.10;;;;;;4946412;28;20885;-77
2022/09/19 10:58:43;;;;;;;8.93;1.60;;;19.50;97.50;;;;;;4945470;29;20400;-74
2022/09/19 11:01:22;;;;;;;2.65;0.80;;;19.50;97.30;;;;;;4948406;29;20100;-79
2022/09/19 11:04:21;;;;;;;1.88;0.95;;;19.40;96.00;;;;;;4948033;28;20067;-78
2022/09/19 11:07:02;;;;;;;2.08;0.90;;;19.20;95.30;;;;;;4947253;29;20029;-78
2022/09/19 11:09:36;;;;;;;1.45;0.70;;;19.70;96.00;;;;;;4949512;29;20063;-77
2022/09/19 11:12:04;;;;;;;3.80;0.90;;;19.70;94.40;;;;;;4949096;28;20396;-75
2022/09/19 11:14:37;;;;;;;1.75;0.70;;;19.60;94.10;;;;;;4961513;28;20042;-79
2022/09/19 11:17:25;;;;;;;7.13;0.93;;;19.50;95.60;;;;;;4949354;29;20110;-78
2022/09/19 11:20:18;;;;;;;1.95;0.70;;;19.60;94.60;;;;;;4947942;28;20515;-79
2022/09/19 11:23:03;;;;;;;5.32;0.80;;;19.60;93.80;;;;;;4946900;28;20122;-77
2022/09/19 11:25:47;;;;;;;4.85;0.88;;;19.70;95.10;;;;;;4954698;28;20468;-75
2022/09/19 11:28:28;;;;;;;4.72;0.82;;;20.00;94.20;;;;;;4948790;29;20034;-79
2022/09/19 11:31:14;;;;;;;2.88;0.70;;;20.40;94.30;;;;;;4948387;28;20042;-75
2022/09/19 11:33:55;;;;;;;3.60;0.98;;;20.60;93.10;;;;;;4948933;29;20024;-76
2022/09/19 11:36:38;;;;;;;3.78;0.90;;;20.40;92.60;;;;;;4946429;29;20019;-78
2022/09/19 11:39:15;;;;;;;;;;;20.50;93.20;;;;;;4950889;29;20043;-77
2022/09/19 11:41:51;;;;;;;3.72;0.80;;;20.80;92.70;;;;;;4942840;29;19911;-78
2022/09/19 11:44:28;;;;;;;5.38;1.08;;;21.60;92.80;;;;;;4946632;29;20045;-73
2022/09/19 11:47:13;;;;;;;7.07;1.17;;;22.00;91.60;;;;;;4946706;29;20042;-78
2022/09/19 11:50:20;;;;;;;3.67;1.00;;;22.00;91.00;;;;;;4944506;29;20019;-76
2022/09/19 11:52:55;;;;;;;3.10;1.02;;;22.10;90.80;;;;;;4944687;29;20031;-76
2022/09/19 11:55:41;;;;;;;9.10;1.27;;;21.80;92.60;;;;;;4961329;28;20040;-77
2022/09/19 11:58:25;;;;;;;3.90;1.08;;;22.00;90.40;;;;;;4947579;28;20110;-76
2022/09/19 12:01:05;;;;;;;6.35;1.42;;;22.10;90.70;;;;;;4960878;28;20058;-78
2022/09/19 12:03:56;;;;;;;4.68;1.40;;;21.90;88.10;;;;;;4944746;29;20746;-78
2022/09/19 12:06:40;;;;;;;9.27;1.52;;;21.70;90.50;;;;;;4946494;28;20026;-77
2022/09/19 12:09:25;;;;;;;4.03;1.08;;;21.40;90.20;;;;;;4951598;28;20110;-76
2022/09/19 12:12:11;;;;;;;6.22;1.13;;;21.20;90.80;;;;;;4945248;29;20102;-75
2022/09/19 12:14:42;;;;;;;8.00;1.05;;;20.80;91.40;;;;;;4942286;29;20516;-75
2022/09/19 12:17:32;;;;;;;5.63;1.02;;;20.40;92.50;;;;;;4946594;28;20046;-75
2022/09/19 12:20:32;;;;;;;5.53;1.15;;;20.30;92.30;;;;;;4944220;28;20356;-77
2022/09/19 12:25:58;;;;;;;2.70;1.10;;;20.10;91.20;;;;;;4943983;29;20087;-77
2022/09/19 12:28:32;;;;;;;1.60;0.70;;;21.00;90.90;;;;;;4945381;29;20055;-77
2022/09/19 12:31:02;;;;;;;3.53;0.80;;;21.40;90.80;;;;;;4942762;29;20024;-74
2022/09/19 12:33:46;;;;;;;4.38;0.82;;;21.20;90.50;;;;;;4942434;28;20020;-77
2022/09/19 12:36:33;;;;;;;4.05;0.63;;;21.50;91.40;;;;;;4948049;28;20050;-73
2022/09/19 12:39:03;;;;;;;4.53;1.20;;;21.90;88.10;;;;;;4947131;29;20031;-74
2022/09/19 12:41:56;;;;;;;5.95;0.98;;;21.90;85.90;;;;;;4948691;28;20027;-75
2022/09/19 12:44:39;;;;;;;2.95;0.90;;;22.00;85.20;;;;;;4945967;29;20160;-76
2022/09/19 12:47:19;;;;;;;3.63;0.80;;;22.00;85.20;;;;;;4952962;29;20063;-78
2022/09/19 12:50:23;;;;;;;2.22;1.10;;;21.70;85.10;;;;;;4946839;29;20115;-76
2022/09/19 12:53:31;;;;;;;7.05;0.90;;;22.20;86.40;;;;;;4947218;29;20110;-76
2022/09/19 12:56:19;;;;;;;7.40;1.17;;;22.80;83.60;;;;;;4933302;28;20028;-80
2022/09/19 12:59:35;;;;;;;3.30;0.95;;;22.50;90.10;;;;;;4949769;29;20028;-74
2022/09/19 13:02:23;;;;;;;8.20;1.33;;;22.40;91.30;;;;;;4913150;29;20027;-77
2022/09/19 13:04:57;;;;;;;3.40;1.30;;;21.50;92.50;;;;;;4914096;29;20619;-75
2022/09/19 13:07:31;;;;;;;5.80;1.67;;;21.10;93.30;;;;;;4909783;29;20123;-73
2022/09/19 13:10:17;;;;;;;6.70;1.15;;;20.50;92.70;;;;;;4907762;29;20399;-70
2022/09/19 13:13:02;;;;;;;6.10;0.90;;;20.20;93.10;;;;;;4909812;29;20111;-73
2022/09/19 13:15:42;;;;;;;9.00;1.33;;;20.70;93.20;;;;;;4911836;29;20099;-74
2022/09/19 13:24:00;;;;;;;6.35;1.17;;;21.60;91.20;;;;;;4911041;29;20039;-77
2022/09/19 13:26:35;;;;;;;3.13;0.93;;;21.70;90.90;;;;;;4908423;29;20462;-76
2022/09/19 13:29:28;;;;;;;3.83;1.25;;;21.50;90.90;;;;;;4898216;29;20024;-74
2022/09/19 13:32:01;;;;;;;6.18;1.13;;;20.80;92.70;;;;;;4919795;29;20090;-75
2022/09/19 13:34:32;;;;;;;6.32;1.20;;;20.40;94.10;;;;;;4948207;28;20066;-76
2022/09/19 13:37:05;;;;;;;5.47;1.20;;;19.90;94.50;;;;;;4948656;29;20043;-70
2022/09/19 13:39:53;;;;;;;3.80;1.33;;;20.20;95.10;;;;;;4948719;28;20106;-70
2022/09/19 13:42:41;;;;;;;3.35;1.30;;;20.50;94.40;;;;;;4943082;29;20546;-75
2022/09/19 13:45:29;;;;;;;3.38;0.90;;;20.50;94.70;;;;;;4948449;29;20077;-73
2022/09/19 13:48:04;;;;;;;3.15;0.90;;;20.90;94.40;;;;;;4948746;29;20023;-73
2022/09/19 13:50:33;;;;;;;4.35;1.23;;;21.10;94.20;;;;;;4948965;29;20063;-75
2022/09/19 13:53:04;;;;;;;2.83;0.95;;;21.00;92.80;;;;;;4951397;29;20046;-71
2022/09/19 13:55:41;;;;;;;3.33;0.93;;;21.60;92.50;;;;;;4952161;28;20131;-74
2022/09/19 13:58:19;;;;;;;3.20;1.13;;;21.50;91.90;;;;;;4945371;28;20024;-74
2022/09/19 14:01:04;;;;;;;3.33;0.98;;;22.00;92.60;;;;;;4941748;28;20083;-73
2022/09/19 14:03:38;;;;;;;3.97;1.17;;;22.50;91.50;;;;;;4942740;29;20107;-73
2022/09/19 14:06:29;;;;;;;2.63;0.80;;;22.70;90.80;;;;;;4948812;29;20639;-72
2022/09/19 14:09:31;;;;;;;8.10;1.10;;;21.90;94.20;;;;;;4944991;29;20031;-74
2022/09/19 14:11:59;;;;;;;2.80;0.73;;;21.10;95.70;;;;;;4949018;29;20016;-74
2022/09/19 14:14:49;;;;;;;2.25;1.27;;;20.20;95.80;;;;;;4947877;28;20050;-74
2022/09/19 14:17:17;;;;;;;0.82;0.60;;;19.50;96.20;;;;;;4945542;29;20054;-73
2022/09/19 14:19:53;;;;;;;0.80;0.70;;;19.10;96.70;;;;;;4945708;29;20032;-72
2022/09/19 14:22:37;;;;;;;2.35;0.93;;;18.70;97.00;;;;;;4942569;28;20453;-73
2022/09/19 14:25:22;;;;;;;2.00;0.82;;;18.20;98.00;;;;;;4945716;29;20059;-73
2022/09/19 14:27:53;;;;;;;2.33;0.75;;;17.90;98.50;;;;;;4946799;29;20038;-74
2022/09/19 14:30:42;;;;;;;1.48;0.52;;;17.60;99.20;;;;;;4942104;29;20420;-74
2022/09/19 14:33:26;;;;;;;0.90;0.60;;;17.60;99.20;;;;;;4960911;28;20707;-75
2022/09/19 14:36:07;;;;;;;2.10;0.63;;;17.50;99.90;;;;;;4941381;29;20130;-74
2022/09/19 14:38:45;;;;;;;4.20;0.70;;;17.70;99.90;;;;;;4948641;29;20027;-74
2022/09/19 14:41:23;;;;;;;4.55;0.73;;;18.20;99.90;;;;;;4940552;29;20027;-71
2022/09/19 14:43:52;;;;;;;5.60;0.70;;;19.20;99.30;;;;;;4946246;29;20753;-75
2022/09/19 14:46:46;;;;;;;1.85;0.65;;;20.50;97.70;;;;;;4944811;28;20619;-75
2022/09/19 14:49:25;;;;;;;1.70;0.57;;;20.60;96.40;;;;;;4959896;28;20027;-74
2022/09/19 14:51:50;;;;;;;4.43;0.88;;;20.30;96.20;;;;;;4947663;29;20051;-74
2022/09/19 14:54:31;;;;;;;1.08;0.60;;;20.20;95.90;;;;;;4943596;29;20485;-74
2022/09/19 14:57:02;;;;;;;2.42;0.82;;;20.90;95.30;;;;;;4940569;29;20023;-74
2022/09/19 14:59:30;;;;;;;1.92;0.95;;;21.60;94.50;;;;;;4924144;29;20027;-73
2022/09/19 15:02:18;;;;;;;5.15;0.95;;;21.60;93.70;;;;;;4942550;29;20023;-73
2022/09/19 15:04:45;;;;;;;2.67;0.70;;;21.20;93.70;;;;;;4956135;28;20189;-73
2022/09/19 15:07:11;;;;;;;2.13;0.90;;;20.90;95.00;;;;;;4944650;28;20038;-73
2022/09/19 15:09:38;;;;;;;3.55;0.80;;;20.60;94.60;;;;;;4941960;28;20018;-74
2022/09/19 15:12:27;;;;;;;5.07;1.17;;;20.20;95.00;;;;;;4942761;28;20031;-76
2022/09/19 15:14:58;;;;;;;6.43;1.00;;;19.80;95.80;;;;;;4943461;29;20031;-72
2022/09/19 15:17:31;;;;;;;5.00;1.40;;;19.50;95.70;;;;;;4946455;29;20031;-73
2022/09/19 15:19:59;;;;;;;4.32;1.27;;;19.20;97.30;;;;;;4944681;28;20031;-74
2022/09/19 15:22:30;;;;;;;6.97;1.75;;;19.00;96.30;;;;;;4959405;28;20344;-76
2022/09/19 15:25:00;;;;;;;5.05;1.00;;;18.70;96.90;;;;;;4942883;29;20038;-73
2022/09/19 15:27:31;;;;;;;3.00;0.95;;;19.10;96.10;;;;;;4942921;29;20098;-73
2022/09/19 15:30:17;;;;;;;3.42;1.08;;;20.00;95.90;;;;;;4945596;29;20403;-75
2022/09/19 15:32:47;;;;;;;4.18;0.82;;;21.50;92.20;;;;;;4944408;29;20043;-73
2022/09/19 15:35:17;;;;;;;3.90;1.20;;;21.90;91.50;;;;;;4948218;29;20058;-75
2022/09/19 15:37:46;;;;;;;2.20;0.80;;;26.60;82.40;;;;;;4946947;28;20035;-76
2022/09/19 15:40:19;;;;;;;2.75;1.10;;;30.80;73.10;;;;;;4945598;28;20131;-76
2022/09/19 15:42:45;;;;;;;2.15;0.93;;;34.60;58.70;;;;;;4942942;29;20118;-75
2022/09/19 15:45:26;;;;;;;4.82;1.30;;;37.20;51.40;;;;;;4944832;28;20054;-73
2022/09/19 15:48:01;;;;;;;3.85;1.60;;;37.80;43.90;;;;;;4946510;29;20059;-75
2022/09/19 15:50:36;;;;;;;3.47;1.33;;;37.70;39.90;;;;;;4943612;29;20054;-73
2022/09/19 15:53:04;;;;;;;2.20;1.10;;;38.00;41.00;;;;;;4946816;29;20031;-76
2022/09/19 15:55:32;;;;;;;3.75;1.25;;;37.70;39.70;;;;;;4946459;28;20035;-74
2022/09/19 15:57:59;;;;;;;3.83;1.17;;;34.00;43.10;;;;;;4944718;29;20401;-72
2022/09/19 16:00:27;;;;;;;6.05;1.30;;;31.00;46.80;;;;;;4946060;28;20046;-75
2022/09/19 16:02:58;;;;;;;6.18;1.10;;;27.10;52.00;;;;;;4960330;28;20102;-74
2022/09/19 16:05:31;;;;;;;2.90;1.00;;;24.70;58.50;;;;;;4944016;29;20078;-75
2022/09/19 16:11:35;;;;;;;4.18;1.27;;;21.40;68.20;;;;;;4952019;29;20106;-69
2022/09/19 16:14:26;;;;;;;1.55;1.00;;;20.30;72.50;;;;;;4944931;28;20035;-75
2022/09/19 16:16:59;;;;;;;1.85;0.57;;;19.60;74.70;;;;;;4950083;29;20368;-76
2022/09/19 16:19:30;;;;;;;3.63;1.48;;;19.00;78.00;;;;;;4946299;28;20076;-75
2022/09/19 16:21:58;;;;;;;3.78;0.77;;;18.50;79.80;;;;;;4960736;28;20035;-75
2022/09/19 16:24:29;;;;;;;1.88;0.80;;;18.30;81.90;;;;;;4952910;28;20027;-75
2022/09/19 16:26:59;;;;;;;2.95;0.65;;;18.10;83.50;;;;;;4947505;29;20023;-75
2022/09/19 16:29:32;;;;;;;4.57;1.00;;;18.10;84.80;;;;;;4948921;29;20046;-75
2022/09/19 16:32:01;;;;;;;;;;;20.30;83.50;;;;;;4949908;29;20030;-74
2022/09/19 16:34:35;;;;;;;2.45;0.82;;;21.20;74.80;;;;;;4948344;28;19914;-73
2022/09/19 16:37:02;;;;;;;6.50;1.52;;;20.70;73.40;;;;;;4947508;29;20035;-75
2022/09/19 16:39:44;;;;;;;5.10;1.52;;;19.70;75.00;;;;;;4949911;28;20031;-77
2022/09/19 16:42:10;;;;;;;6.53;1.40;;;19.10;78.20;;;;;;4949007;29;20028;-74
2022/09/19 16:44:40;;;;;;;5.00;1.25;;;18.70;79.30;;;;;;4947233;28;20290;-74
2022/09/19 16:47:20;;;;;;;13.98;1.75;;;18.40;80.40;;;;;;4949162;29;20027;-74
2022/09/19 16:49:47;;;;;;;5.55;1.80;;;18.10;81.30;;;;;;4948065;29;20031;-74
2022/09/19 16:52:19;;;;;;;7.32;1.15;;;17.90;83.30;;;;;;4947601;29;20037;-75
2022/09/19 16:54:45;;;;;;;8.63;1.30;;;17.70;83.50;;;;;;4952175;29;20031;-75
2022/09/19 16:57:13;;;;;;;7.82;1.23;;;17.60;84.70;;;;;;4950931;28;20019;-76
2022/09/19 16:59:40;;;;;;;5.45;1.10;;;17.50;85.70;;;;;;4955817;29;20035;-75
2022/09/19 17:02:25;;;;;;;4.97;1.25;;;17.40;86.00;;;;;;4952354;29;20054;-69
2022/09/19 17:04:52;;;;;;;5.72;1.30;;;17.40;86.80;;;;;;4952751;29;20150;-76
2022/09/19 17:07:23;;;;;;;6.60;1.25;;;17.30;87.40;;;;;;4950260;29;20019;-73
2022/09/19 17:09:50;;;;;;;6.35;1.10;;;17.20;88.10;;;;;;4947972;29;20468;-72
2022/09/19 17:12:18;;;;;;;7.07;1.40;;;17.10;90.00;;;;;;4946065;29;20024;-74
2022/09/19 17:14:48;;;;;;;5.85;1.40;;;17.00;90.40;;;;;;4951394;28;20036;-75
2022/09/19 17:17:14;;;;;;;6.78;1.15;;;17.00;90.50;;;;;;4948444;29;20565;-74
2022/09/19 17:19:41;;;;;;;4.70;1.02;;;17.10;90.70;;;;;;4950104;28;20035;-73
2022/09/19 17:22:15;;;;;;;7.63;1.40;;;17.10;90.80;;;;;;4948930;28;20030;-73
2022/09/19 17:24:42;;;;;;;6.15;1.45;;;17.10;90.80;;;;;;4948975;29;20101;-76
2022/09/19 17:27:08;;;;;;;8.10;1.27;;;17.10;91.30;;;;;;4951704;28;20441;-71
2022/09/19 17:29:34;;;;;;;4.20;1.30;;;17.00;90.90;;;;;;4946957;29;20095;-74
2022/09/19 17:32:01;;;;;;;7.03;1.42;;;17.00;91.10;;;;;;4952401;28;20107;-79
2022/09/19 17:34:29;;;;;;;8.85;1.30;;;16.90;91.30;;;;;;4949294;29;20023;-75
2022/09/19 17:36:54;;;;;;;6.82;1.25;;;16.90;91.70;;;;;;4946735;29;20113;-76
2022/09/19 17:39:20;;;;;;;8.35;1.10;;;16.80;91.70;;;;;;4952114;29;20123;-72
2022/09/19 17:41:46;;;;;;;7.55;1.27;;;16.70;92.00;;;;;;4951005;29;20031;-76
2022/09/19 17:44:12;;;;;;;10.60;1.67;;;16.50;91.80;;;;;;4949756;29;20181;-73
2022/09/19 17:46:41;;;;;;;8.98;1.20;;;16.50;91.90;;;;;;4951954;29;20106;-73
2022/09/19 17:49:06;;;;;;;5.97;1.48;;;16.40;91.40;;;;;;4952715;28;20023;-76
2022/09/19 17:51:32;;;;;;;13.40;1.50;;;16.30;91.70;;;;;;4951070;28;20030;-78
2022/09/19 17:53:58;;;;;;;10.30;1.63;;;16.30;91.80;;;;;;4953722;28;20098;-73
2022/09/19 17:56:26;;;;;;;13.82;1.67;;;16.30;92.00;;;;;;4952352;29;20354;-73
2022/09/19 17:58:56;;;;;;;6.15;1.38;;;16.20;92.00;;;;;;4945812;28;20048;-74
2022/09/19 18:04:09;;;;;;;11.27;1.40;;;16.00;92.60;;;;;;4946501;29;20046;-74
2022/09/19 18:06:35;;;;;;;6.03;1.40;;;16.10;92.40;;;;;;4949830;28;20030;-68
2022/09/19 18:09:03;;;;;;;5.85;1.75;;;16.10;92.00;;;;;;4953080;29;21204;-74
2022/09/19 18:11:29;;;;;;;5.63;1.65;;;16.00;91.10;;;;;;4947837;28;20689;-73
2022/09/19 18:14:02;;;;;;;5.55;1.23;;;15.90;90.90;;;;;;4947062;29;20031;-74
2022/09/19 18:16:32;;;;;;;10.15;1.13;;;15.90;90.70;;;;;;4952452;29;20054;-73
2022/09/19 18:19:00;;;;;;;11.02;1.92;;;15.80;90.70;;;;;;4947926;28;20118;-73
2022/09/19 18:21:27;;;;;;;10.20;1.38;;;15.80;90.60;;;;;;4945447;28;20042;-73
2022/09/19 18:23:53;;;;;;;9.38;1.77;;;15.80;90.30;;;;;;4947739;28;20451;-73
2022/09/19 18:26:20;;;;;;;7.40;1.33;;;15.80;90.30;;;;;;4945764;28;20102;-73
2022/09/19 18:28:52;;;;;;;10.98;2.00;;;15.80;90.30;;;;;;4950126;29;20094;-74
2022/09/19 18:31:17;;;;;;;9.25;1.55;;;15.70;90.50;;;;;;4947657;28;20114;-74
2022/09/19 18:33:43;;;;;;;8.02;1.30;;;15.70;90.70;;;;;;4947918;28;20409;-74